Terminal Aerodrome Forecast
Issued by NWS

Home | Current Version | Previous Version | Text Only | Print | Product List | Glossary On
Versions: 1 2 3 4 5 6 7 8 9 10 11 12 13 14 15
000
FTUS46 KMTR 190500
TAFSTS
TAF
KSTS 190535Z 1906/2006 VRB03KT P6SM SCT020
      TEMPO 1906/1909 2SM BR BKN002
     FM190900 00000KT 2SM BR VV002
      TEMPO 1909/1912 1/4SM FG VV001
     FM191800 19007KT P6SM FEW011
     FM200300 VRB03KT P6SM FEW010=

USA.gov is the U.S. government's official web portal to all federal, state and local government web resources and services.